»·PEaware :: DAL494 KLAS-KLAX

DAL494 :: KLAS-KLAX

FLIGHT INFORMATION

Flight Status: Arrived
Operator:
Delta Air Lines
More flights by this operator :: More flights under this callsign
Pilot: Tamer M. (30101)
Aircraft: BOEING 737-700
(B737)
More flights by this aircraft type
Origin: KLAS Harry Reid Intl
United States
Destination: KLAX Los Angeles Intl
United States
More flights between these airports :: More routes between these airports
Route: RADYR2 BLAQQ SHTNR ANJLL4
File this flight plan on PilotEdge
Remarks:
Altitude:
(Current/Filed)
28,000ft
Speed:
(Current/Filed)
416kts
Departed: 26-Sep-22 09:16 AM
Arrived: 26-Sep-22 10:01 AM
Distance/Time
Traveled:
205nm/0:44
Distance/Time
To Go:
Arrived

Flight Plot

Page will automatically refresh every two minutes.

Flight plan parsing failed; only flown route is shown


Map Options




Map Legend


Flown Route
Filed Route
Departure Airport
Arrival Airport
Navaid (VOR, NDB)
Fix

Horizontal Profiles

Position Reports

Time Latitude Longitude Heading Altitude Ground
Speed
26-Sep-22 08:48 36.080208 -115.136033 67 2080ft 0kts
26-Sep-22 08:49 36.080208 -115.136033 67 2080ft 0kts
26-Sep-22 08:50 36.080208 -115.136033 67 2080ft 0kts
26-Sep-22 08:51 36.080208 -115.136033 67 2080ft 0kts
26-Sep-22 08:52 36.080208 -115.136033 67 2080ft 0kts
26-Sep-22 08:53 36.080208 -115.136033 67 2080ft 0kts
26-Sep-22 08:54 36.080208 -115.136033 67 2080ft 0kts
26-Sep-22 08:55 36.080208 -115.136033 67 2080ft 0kts
26-Sep-22 08:56 36.080208 -115.136033 67 2080ft 0kts
26-Sep-22 08:57 36.080208 -115.136033 67 2080ft 0kts
26-Sep-22 08:58 36.080208 -115.136033 67 2080ft 0kts
26-Sep-22 08:59 36.080208 -115.136033 67 2080ft 0kts
26-Sep-22 09:00 36.080208 -115.136033 67 2080ft 0kts
26-Sep-22 09:01 36.080208 -115.136033 67 2080ft 0kts
26-Sep-22 09:02 36.080208 -115.136033 67 2080ft 0kts
26-Sep-22 09:03 36.080173 -115.136135 66 2080ft 2kts
26-Sep-22 09:04 36.080095 -115.136823 151 2082ft 1kts
26-Sep-22 09:05 36.080138 -115.136850 155 2082ft 0kts
26-Sep-22 09:06 36.080138 -115.136850 155 2082ft 0kts
26-Sep-22 09:07 36.080138 -115.136850 155 2082ft 0kts
26-Sep-22 09:08 36.080138 -115.136850 155 2082ft 0kts
26-Sep-22 09:09 36.080138 -115.136850 155 2082ft 0kts
26-Sep-22 09:10 36.079086 -115.136116 133 2079ft 9kts
26-Sep-22 09:11 36.078278 -115.132363 90 2066ft 16kts
26-Sep-22 09:12 36.077543 -115.127320 91 2047ft 17kts
26-Sep-22 09:13 36.077499 -115.121652 111 2029ft 0kts
26-Sep-22 09:14 36.077283 -115.121363 152 2030ft 8kts
26-Sep-22 09:15 36.076412 -115.138652 270 2152ft 160kts
26-Sep-22 09:16 36.077537 -115.199170 266 4739ft 214kts
26-Sep-22 09:17 36.044885 -115.271353 200 6491ft 288kts
26-Sep-22 09:18 35.965682 -115.301828 190 10098ft 298kts
26-Sep-22 09:19 35.877539 -115.322299 191 12408ft 352kts
26-Sep-22 09:20 35.778711 -115.346377 191 15428ft 370kts
26-Sep-22 09:21 35.676456 -115.371407 191 18390ft 384kts
26-Sep-22 09:22 35.567991 -115.385619 176 20927ft 399kts
26-Sep-22 09:23 35.455872 -115.377089 181 23813ft 401kts
26-Sep-22 09:24 35.356528 -115.429408 209 26766ft 387kts
26-Sep-22 09:25 35.260604 -115.491368 208 28109ft 392kts
26-Sep-22 09:26 35.165091 -115.552156 208 28097ft 385kts
26-Sep-22 09:27 35.082313 -115.631474 227 28087ft 382kts
26-Sep-22 09:28 35.008853 -115.725849 227 28073ft 383kts
26-Sep-22 09:29 34.935341 -115.819554 227 28054ft 383kts
26-Sep-22 09:30 34.861704 -115.913128 227 28046ft 383kts
26-Sep-22 09:31 34.788072 -116.006462 227 28037ft 383kts
26-Sep-22 09:32 34.714401 -116.100103 227 28036ft 382kts
26-Sep-22 09:33 34.640974 -116.193540 227 28043ft 383kts
26-Sep-22 09:35 34.567348 -116.286928 227 28069ft 384kts
26-Sep-22 09:36 34.493508 -116.380331 227 28075ft 383kts
26-Sep-22 09:37 34.419984 -116.473526 231 28061ft 383kts
26-Sep-22 09:38 34.371392 -116.587363 244 28026ft 381kts
26-Sep-22 09:39 34.324410 -116.701763 244 26770ft 374kts
26-Sep-22 09:40 34.279387 -116.813855 244 25019ft 369kts
26-Sep-22 09:41 34.234439 -116.925353 243 23154ft 368kts
26-Sep-22 09:42 34.195252 -117.038741 253 21053ft 367kts
26-Sep-22 09:43 34.164876 -117.154125 251 19252ft 359kts
26-Sep-22 09:44 34.134547 -117.264128 251 17428ft 328kts
26-Sep-22 09:45 34.107123 -117.363619 251 15713ft 305kts
26-Sep-22 09:46 34.082098 -117.462951 253 13167ft 307kts
26-Sep-22 09:47 34.057148 -117.561234 253 12797ft 311kts
26-Sep-22 09:48 34.031673 -117.660901 253 10937ft 312kts
26-Sep-22 09:49 34.019451 -117.761761 262 9604ft 289kts
26-Sep-22 09:50 34.009722 -117.851768 262 8204ft 260kts
26-Sep-22 09:51 34.000058 -117.942351 262 6781ft 268kts
26-Sep-22 09:52 33.991606 -118.022167 262 5499ft 222kts
26-Sep-22 09:53 33.985531 -118.079855 262 4694ft 204kts
26-Sep-22 09:54 33.979550 -118.136850 262 3962ft 140kts
26-Sep-22 09:55 33.974731 -118.182978 262 3375ft 137kts
26-Sep-22 09:56 33.969988 -118.228548 263 2793ft 136kts
26-Sep-22 09:56 33.966092 -118.266088 263 2377ft 135kts
26-Sep-22 09:58 33.960748 -118.317785 263 1555ft 131kts
26-Sep-22 09:59 33.956312 -118.361122 263 854ft 129kts
26-Sep-22 10:00 33.952060 -118.402693 261 175ft 121kts
26-Sep-22 10:00 33.949691 -118.418759 232 122ft 28kts
26-Sep-22 10:01 33.949218 -118.419529 234 124ft 9kts
26-Sep-22 10:02 33.947138 -118.422408 166 122ft 0kts
26-Sep-22 10:04 33.947099 -118.419739 83 124ft 15kts
26-Sep-22 10:04 33.947571 -118.415127 82 124ft 16kts
26-Sep-22 10:05 33.947281 -118.411322 78 124ft 10kts
26-Sep-22 10:06 33.946677 -118.408395 120 121ft 0kts
26-Sep-22 10:07 33.946677 -118.408395 120 121ft 0kts
26-Sep-22 10:08 33.946677 -118.408395 120 121ft 0kts

Navigation Log

Ident Type
Flight plan parsing failed, navigation log unavailable